sensor_id;sensor_type;location;lat;lon;timestamp;temperature;humidity
47779;DHT22;33538;48.432;11.350;2023-09-19T00:01:30;18.70;91.00
47779;DHT22;33538;48.432;11.350;2023-09-19T00:03:56;18.70;91.20
47779;DHT22;33538;48.432;11.350;2023-09-19T00:06:23;18.70;91.00
47779;DHT22;33538;48.432;11.350;2023-09-19T00:08:50;18.70;91.10
47779;DHT22;33538;48.432;11.350;2023-09-19T00:11:17;18.70;91.00
47779;DHT22;33538;48.432;11.350;2023-09-19T00:13:44;18.80;90.90
47779;DHT22;33538;48.432;11.350;2023-09-19T00:16:13;18.80;91.10
47779;DHT22;33538;48.432;11.350;2023-09-19T00:18:42;18.80;91.00
47779;DHT22;33538;48.432;11.350;2023-09-19T00:21:08;18.80;91.10
47779;DHT22;33538;48.432;11.350;2023-09-19T00:23:35;18.70;91.10
47779;DHT22;33538;48.432;11.350;2023-09-19T00:26:02;18.70;91.10
47779;DHT22;33538;48.432;11.350;2023-09-19T00:28:29;18.70;91.10
47779;DHT22;33538;48.432;11.350;2023-09-19T00:30:56;18.70;91.30
47779;DHT22;33538;48.432;11.350;2023-09-19T00:33:23;18.70;91.50
47779;DHT22;33538;48.432;11.350;2023-09-19T00:35:51;18.70;91.30
47779;DHT22;33538;48.432;11.350;2023-09-19T00:38:19;18.70;91.30
47779;DHT22;33538;48.432;11.350;2023-09-19T00:40:46;18.70;91.30
47779;DHT22;33538;48.432;11.350;2023-09-19T00:43:13;18.70;91.40
47779;DHT22;33538;48.432;11.350;2023-09-19T00:45:43;18.70;91.50
47779;DHT22;33538;48.432;11.350;2023-09-19T00:48:10;18.70;91.60
47779;DHT22;33538;48.432;11.350;2023-09-19T00:50:38;18.70;91.60
47779;DHT22;33538;48.432;11.350;2023-09-19T00:53:09;18.70;91.60
47779;DHT22;33538;48.432;11.350;2023-09-19T00:55:36;18.70;91.60
47779;DHT22;33538;48.432;11.350;2023-09-19T00:58:04;18.70;91.60
47779;DHT22;33538;48.432;11.350;2023-09-19T01:00:31;18.70;91.60
47779;DHT22;33538;48.432;11.350;2023-09-19T01:02:58;18.70;91.60
47779;DHT22;33538;48.432;11.350;2023-09-19T01:05:25;18.70;91.50
47779;DHT22;33538;48.432;11.350;2023-09-19T01:07:52;18.70;91.50
47779;DHT22;33538;48.432;11.350;2023-09-19T01:10:20;18.70;91.50
47779;DHT22;33538;48.432;11.350;2023-09-19T01:12:55;18.80;91.40
47779;DHT22;33538;48.432;11.350;2023-09-19T01:15:35;18.80;91.40
47779;DHT22;33538;48.432;11.350;2023-09-19T01:18:14;18.70;91.50
47779;DHT22;33538;48.432;11.350;2023-09-19T01:20:47;18.70;91.70
47779;DHT22;33538;48.432;11.350;2023-09-19T01:23:21;18.70;91.70
47779;DHT22;33538;48.432;11.350;2023-09-19T01:26:11;18.70;91.70
47779;DHT22;33538;48.432;11.350;2023-09-19T01:28:52;18.70;91.60
47779;DHT22;33538;48.432;11.350;2023-09-19T01:31:21;18.70;91.70
47779;DHT22;33538;48.432;11.350;2023-09-19T01:33:57;18.70;91.80
47779;DHT22;33538;48.432;11.350;2023-09-19T01:36:25;18.80;91.60
47779;DHT22;33538;48.432;11.350;2023-09-19T01:38:52;18.80;91.80
47779;DHT22;33538;48.432;11.350;2023-09-19T01:41:35;18.70;91.80
47779;DHT22;33538;48.432;11.350;2023-09-19T01:44:06;18.70;92.00
47779;DHT22;33538;48.432;11.350;2023-09-19T01:46:39;18.70;92.20
47779;DHT22;33538;48.432;11.350;2023-09-19T01:49:15;18.70;92.20
47779;DHT22;33538;48.432;11.350;2023-09-19T01:51:51;18.70;92.20
47779;DHT22;33538;48.432;11.350;2023-09-19T01:54:26;18.70;92.40
47779;DHT22;33538;48.432;11.350;2023-09-19T01:56:59;18.70;92.30
47779;DHT22;33538;48.432;11.350;2023-09-19T01:59:32;18.70;92.40
47779;DHT22;33538;48.432;11.350;2023-09-19T02:02:02;18.70;92.50
47779;DHT22;33538;48.432;11.350;2023-09-19T02:04:30;18.70;92.60
47779;DHT22;33538;48.432;11.350;2023-09-19T02:06:58;18.70;92.70
47779;DHT22;33538;48.432;11.350;2023-09-19T02:09:25;18.70;92.50
47779;DHT22;33538;48.432;11.350;2023-09-19T02:11:52;18.70;92.40
47779;DHT22;33538;48.432;11.350;2023-09-19T02:14:19;18.70;92.40
47779;DHT22;33538;48.432;11.350;2023-09-19T02:16:46;18.70;92.40
47779;DHT22;33538;48.432;11.350;2023-09-19T02:19:14;18.70;92.50
47779;DHT22;33538;48.432;11.350;2023-09-19T02:21:41;18.70;92.30
47779;DHT22;33538;48.432;11.350;2023-09-19T02:24:08;18.70;92.30
47779;DHT22;33538;48.432;11.350;2023-09-19T02:26:35;18.70;92.40
47779;DHT22;33538;48.432;11.350;2023-09-19T02:29:01;18.70;92.50
47779;DHT22;33538;48.432;11.350;2023-09-19T02:31:28;18.70;92.50
47779;DHT22;33538;48.432;11.350;2023-09-19T02:33:55;18.70;92.60
47779;DHT22;33538;48.432;11.350;2023-09-19T02:36:23;18.70;92.70
47779;DHT22;33538;48.432;11.350;2023-09-19T02:38:50;18.70;92.50
47779;DHT22;33538;48.432;11.350;2023-09-19T02:41:17;18.70;92.50
47779;DHT22;33538;48.432;11.350;2023-09-19T02:43:44;18.70;93.20
47779;DHT22;33538;48.432;11.350;2023-09-19T02:46:11;18.70;92.90
47779;DHT22;33538;48.432;11.350;2023-09-19T02:48:38;18.60;93.10
47779;DHT22;33538;48.432;11.350;2023-09-19T02:51:05;18.60;93.10
47779;DHT22;33538;48.432;11.350;2023-09-19T02:53:33;18.60;93.20
47779;DHT22;33538;48.432;11.350;2023-09-19T02:56:00;18.60;93.40
47779;DHT22;33538;48.432;11.350;2023-09-19T02:58:26;18.60;93.40
47779;DHT22;33538;48.432;11.350;2023-09-19T03:00:53;18.60;93.40
47779;DHT22;33538;48.432;11.350;2023-09-19T03:03:20;18.60;93.40
47779;DHT22;33538;48.432;11.350;2023-09-19T03:05:47;18.60;93.50
47779;DHT22;33538;48.432;11.350;2023-09-19T03:08:17;18.60;93.50
47779;DHT22;33538;48.432;11.350;2023-09-19T03:10:47;18.60;93.60
47779;DHT22;33538;48.432;11.350;2023-09-19T03:13:14;18.60;93.50
47779;DHT22;33538;48.432;11.350;2023-09-19T03:15:41;18.60;93.40
47779;DHT22;33538;48.432;11.350;2023-09-19T03:18:08;18.60;93.40
47779;DHT22;33538;48.432;11.350;2023-09-19T03:20:35;18.60;93.40
47779;DHT22;33538;48.432;11.350;2023-09-19T03:23:02;18.60;93.30
47779;DHT22;33538;48.432;11.350;2023-09-19T03:25:29;18.50;93.20
47779;DHT22;33538;48.432;11.350;2023-09-19T03:27:57;18.60;93.20
47779;DHT22;33538;48.432;11.350;2023-09-19T03:30:24;18.50;93.20
47779;DHT22;33538;48.432;11.350;2023-09-19T03:32:51;18.50;93.10
47779;DHT22;33538;48.432;11.350;2023-09-19T03:35:18;18.50;93.00
47779;DHT22;33538;48.432;11.350;2023-09-19T03:37:45;18.60;93.00
47779;DHT22;33538;48.432;11.350;2023-09-19T03:40:12;18.50;93.00
47779;DHT22;33538;48.432;11.350;2023-09-19T03:42:40;18.60;93.00
47779;DHT22;33538;48.432;11.350;2023-09-19T03:45:09;18.50;93.00
47779;DHT22;33538;48.432;11.350;2023-09-19T03:47:36;18.60;92.90
47779;DHT22;33538;48.432;11.350;2023-09-19T03:50:03;18.50;92.80
47779;DHT22;33538;48.432;11.350;2023-09-19T03:52:30;18.50;92.70
47779;DHT22;33538;48.432;11.350;2023-09-19T03:54:57;18.60;92.80
47779;DHT22;33538;48.432;11.350;2023-09-19T03:57:24;18.50;92.70
47779;DHT22;33538;48.432;11.350;2023-09-19T03:59:50;18.50;92.90
47779;DHT22;33538;48.432;11.350;2023-09-19T04:02:19;18.50;92.80
47779;DHT22;33538;48.432;11.350;2023-09-19T04:04:45;18.50;92.70
47779;DHT22;33538;48.432;11.350;2023-09-19T04:07:12;18.50;92.70
47779;DHT22;33538;48.432;11.350;2023-09-19T04:09:39;18.50;92.70
47779;DHT22;33538;48.432;11.350;2023-09-19T04:12:07;18.50;92.70
47779;DHT22;33538;48.432;11.350;2023-09-19T04:14:34;18.50;92.50
47779;DHT22;33538;48.432;11.350;2023-09-19T04:17:01;18.50;92.50
47779;DHT22;33538;48.432;11.350;2023-09-19T04:19:29;18.50;92.70
47779;DHT22;33538;48.432;11.350;2023-09-19T04:21:56;18.50;92.60
47779;DHT22;33538;48.432;11.350;2023-09-19T04:24:22;18.50;92.60
47779;DHT22;33538;48.432;11.350;2023-09-19T04:26:49;18.50;92.70
47779;DHT22;33538;48.432;11.350;2023-09-19T04:29:16;18.50;92.80
47779;DHT22;33538;48.432;11.350;2023-09-19T04:31:43;18.40;92.80
47779;DHT22;33538;48.432;11.350;2023-09-19T04:34:10;18.40;92.80
47779;DHT22;33538;48.432;11.350;2023-09-19T04:36:38;18.40;92.80
47779;DHT22;33538;48.432;11.350;2023-09-19T04:39:05;18.40;92.80
47779;DHT22;33538;48.432;11.350;2023-09-19T04:41:32;18.40;92.80
47779;DHT22;33538;48.432;11.350;2023-09-19T04:43:58;18.40;92.90
47779;DHT22;33538;48.432;11.350;2023-09-19T04:46:25;18.40;92.90
47779;DHT22;33538;48.432;11.350;2023-09-19T04:48:52;18.40;92.80
47779;DHT22;33538;48.432;11.350;2023-09-19T04:51:19;18.50;92.90
47779;DHT22;33538;48.432;11.350;2023-09-19T04:53:47;18.50;92.80
47779;DHT22;33538;48.432;11.350;2023-09-19T04:56:14;18.50;92.90
47779;DHT22;33538;48.432;11.350;2023-09-19T04:58:40;18.40;93.00
47779;DHT22;33538;48.432;11.350;2023-09-19T05:01:07;18.40;93.10
47779;DHT22;33538;48.432;11.350;2023-09-19T05:03:34;18.50;93.10
47779;DHT22;33538;48.432;11.350;2023-09-19T05:06:01;18.40;93.10
47779;DHT22;33538;48.432;11.350;2023-09-19T05:08:28;18.40;93.10
47779;DHT22;33538;48.432;11.350;2023-09-19T05:10:56;18.40;93.30
47779;DHT22;33538;48.432;11.350;2023-09-19T05:13:23;18.40;93.40
47779;DHT22;33538;48.432;11.350;2023-09-19T05:15:50;18.40;93.50
47779;DHT22;33538;48.432;11.350;2023-09-19T05:18:16;18.40;93.50
47779;DHT22;33538;48.432;11.350;2023-09-19T05:20:43;18.40;93.50
47779;DHT22;33538;48.432;11.350;2023-09-19T05:23:10;18.30;93.70
47779;DHT22;33538;48.432;11.350;2023-09-19T05:25:38;18.40;93.70
47779;DHT22;33538;48.432;11.350;2023-09-19T05:28:07;18.40;93.80
47779;DHT22;33538;48.432;11.350;2023-09-19T05:30:34;18.30;93.70
47779;DHT22;33538;48.432;11.350;2023-09-19T05:33:01;18.30;93.80
47779;DHT22;33538;48.432;11.350;2023-09-19T05:35:28;18.30;93.80
47779;DHT22;33538;48.432;11.350;2023-09-19T05:37:55;18.30;93.90
47779;DHT22;33538;48.432;11.350;2023-09-19T05:40:22;18.30;93.90
47779;DHT22;33538;48.432;11.350;2023-09-19T05:42:49;18.30;94.00
47779;DHT22;33538;48.432;11.350;2023-09-19T05:45:17;18.30;94.00
47779;DHT22;33538;48.432;11.350;2023-09-19T05:47:44;18.20;94.00
47779;DHT22;33538;48.432;11.350;2023-09-19T05:50:12;18.20;94.00
47779;DHT22;33538;48.432;11.350;2023-09-19T05:52:38;18.20;94.10
47779;DHT22;33538;48.432;11.350;2023-09-19T05:55:06;18.30;93.90
47779;DHT22;33538;48.432;11.350;2023-09-19T05:57:33;18.30;93.90
47779;DHT22;33538;48.432;11.350;2023-09-19T06:00:00;18.30;93.90
47779;DHT22;33538;48.432;11.350;2023-09-19T06:02:28;18.30;93.90
47779;DHT22;33538;48.432;11.350;2023-09-19T06:04:55;18.20;94.00
47779;DHT22;33538;48.432;11.350;2023-09-19T06:07:22;18.30;94.10
47779;DHT22;33538;48.432;11.350;2023-09-19T06:09:49;18.30;94.00
47779;DHT22;33538;48.432;11.350;2023-09-19T06:12:16;18.20;94.30
47779;DHT22;33538;48.432;11.350;2023-09-19T06:14:43;18.30;94.30
47779;DHT22;33538;48.432;11.350;2023-09-19T06:17:10;18.30;94.00
47779;DHT22;33538;48.432;11.350;2023-09-19T06:19:38;18.30;93.70
47779;DHT22;33538;48.432;11.350;2023-09-19T06:22:05;18.40;93.60
47779;DHT22;33538;48.432;11.350;2023-09-19T06:24:32;18.40;93.30
47779;DHT22;33538;48.432;11.350;2023-09-19T06:26:58;18.40;93.10
47779;DHT22;33538;48.432;11.350;2023-09-19T06:29:25;18.40;93.10
47779;DHT22;33538;48.432;11.350;2023-09-19T06:31:52;18.40;93.00
47779;DHT22;33538;48.432;11.350;2023-09-19T06:34:19;18.40;93.00
47779;DHT22;33538;48.432;11.350;2023-09-19T06:36:47;18.40;93.10
47779;DHT22;33538;48.432;11.350;2023-09-19T06:39:14;18.40;93.10
47779;DHT22;33538;48.432;11.350;2023-09-19T06:41:40;18.40;93.10
47779;DHT22;33538;48.432;11.350;2023-09-19T06:44:07;18.40;93.00
47779;DHT22;33538;48.432;11.350;2023-09-19T06:46:34;18.40;92.90
47779;DHT22;33538;48.432;11.350;2023-09-19T06:49:01;18.40;92.90
47779;DHT22;33538;48.432;11.350;2023-09-19T06:51:28;18.50;92.90
47779;DHT22;33538;48.432;11.350;2023-09-19T06:53:56;18.50;92.90
47779;DHT22;33538;48.432;11.350;2023-09-19T06:56:23;18.50;92.90
47779;DHT22;33538;48.432;11.350;2023-09-19T06:58:50;18.50;93.00
47779;DHT22;33538;48.432;11.350;2023-09-19T07:01:16;18.50;93.00
47779;DHT22;33538;48.432;11.350;2023-09-19T07:03:43;18.50;93.10
47779;DHT22;33538;48.432;11.350;2023-09-19T07:06:10;18.50;93.20
47779;DHT22;33538;48.432;11.350;2023-09-19T07:08:37;18.50;93.20
47779;DHT22;33538;48.432;11.350;2023-09-19T07:11:05;18.50;93.30
47779;DHT22;33538;48.432;11.350;2023-09-19T07:13:32;18.50;93.30
47779;DHT22;33538;48.432;11.350;2023-09-19T07:15:59;18.50;93.30
47779;DHT22;33538;48.432;11.350;2023-09-19T07:18:26;18.50;93.40
47779;DHT22;33538;48.432;11.350;2023-09-19T07:20:57;18.50;93.40
47779;DHT22;33538;48.432;11.350;2023-09-19T07:23:23;18.50;93.40
47779;DHT22;33538;48.432;11.350;2023-09-19T07:25:50;18.50;93.50
47779;DHT22;33538;48.432;11.350;2023-09-19T07:28:19;18.50;93.50
47779;DHT22;33538;48.432;11.350;2023-09-19T07:30:46;18.50;93.60
47779;DHT22;33538;48.432;11.350;2023-09-19T07:33:12;18.50;93.60
47779;DHT22;33538;48.432;11.350;2023-09-19T07:35:39;18.50;93.70
47779;DHT22;33538;48.432;11.350;2023-09-19T07:38:06;18.50;93.80
47779;DHT22;33538;48.432;11.350;2023-09-19T07:40:33;18.50;93.80
47779;DHT22;33538;48.432;11.350;2023-09-19T07:43:00;18.50;93.80
47779;DHT22;33538;48.432;11.350;2023-09-19T07:45:28;18.50;93.90
47779;DHT22;33538;48.432;11.350;2023-09-19T07:47:55;18.50;93.90
47779;DHT22;33538;48.432;11.350;2023-09-19T07:50:23;18.60;94.00
47779;DHT22;33538;48.432;11.350;2023-09-19T07:52:50;18.60;94.10
47779;DHT22;33538;48.432;11.350;2023-09-19T07:55:17;18.60;94.10
47779;DHT22;33538;48.432;11.350;2023-09-19T07:57:44;18.60;94.10
47779;DHT22;33538;48.432;11.350;2023-09-19T08:00:11;18.60;94.20
47779;DHT22;33538;48.432;11.350;2023-09-19T08:02:40;18.60;94.20
47779;DHT22;33538;48.432;11.350;2023-09-19T08:05:08;18.60;94.30
47779;DHT22;33538;48.432;11.350;2023-09-19T08:07:35;18.60;94.40
47779;DHT22;33538;48.432;11.350;2023-09-19T08:10:02;18.60;94.40
47779;DHT22;33538;48.432;11.350;2023-09-19T08:12:29;18.60;94.50
47779;DHT22;33538;48.432;11.350;2023-09-19T08:14:56;18.70;94.50
47779;DHT22;33538;48.432;11.350;2023-09-19T08:17:23;18.70;94.60
47779;DHT22;33538;48.432;11.350;2023-09-19T08:19:51;18.70;94.60
47779;DHT22;33538;48.432;11.350;2023-09-19T08:22:19;18.70;94.60
47779;DHT22;33538;48.432;11.350;2023-09-19T08:24:46;18.70;94.70
47779;DHT22;33538;48.432;11.350;2023-09-19T08:27:12;18.70;94.70
47779;DHT22;33538;48.432;11.350;2023-09-19T08:29:40;18.70;94.70
47779;DHT22;33538;48.432;11.350;2023-09-19T08:32:07;18.70;94.60
47779;DHT22;33538;48.432;11.350;2023-09-19T08:34:33;18.70;94.50
47779;DHT22;33538;48.432;11.350;2023-09-19T08:37:02;18.70;94.40
47779;DHT22;33538;48.432;11.350;2023-09-19T08:39:29;18.70;94.40
47779;DHT22;33538;48.432;11.350;2023-09-19T08:41:59;18.80;94.30
47779;DHT22;33538;48.432;11.350;2023-09-19T08:44:26;18.80;94.20
47779;DHT22;33538;48.432;11.350;2023-09-19T08:46:55;18.80;94.20
47779;DHT22;33538;48.432;11.350;2023-09-19T08:49:31;18.80;94.60
47779;DHT22;33538;48.432;11.350;2023-09-19T08:52:10;18.80;94.20
47779;DHT22;33538;48.432;11.350;2023-09-19T08:54:43;18.90;94.20
47779;DHT22;33538;48.432;11.350;2023-09-19T08:57:11;18.80;94.20
47779;DHT22;33538;48.432;11.350;2023-09-19T08:59:38;18.90;94.20
47779;DHT22;33538;48.432;11.350;2023-09-19T09:02:11;18.90;94.20
47779;DHT22;33538;48.432;11.350;2023-09-19T09:04:39;18.90;94.20
47779;DHT22;33538;48.432;11.350;2023-09-19T09:07:11;18.90;94.20
47779;DHT22;33538;48.432;11.350;2023-09-19T09:09:38;18.90;94.10
47779;DHT22;33538;48.432;11.350;2023-09-19T09:12:06;18.90;94.10
47779;DHT22;33538;48.432;11.350;2023-09-19T09:14:33;18.90;94.10
47779;DHT22;33538;48.432;11.350;2023-09-19T09:16:59;18.90;94.10
47779;DHT22;33538;48.432;11.350;2023-09-19T09:19:26;18.90;94.10
47779;DHT22;33538;48.432;11.350;2023-09-19T09:21:53;18.90;94.10
47779;DHT22;33538;48.432;11.350;2023-09-19T09:24:27;18.90;94.10
47779;DHT22;33538;48.432;11.350;2023-09-19T09:26:54;18.90;94.20
47779;DHT22;33538;48.432;11.350;2023-09-19T09:29:41;18.90;94.20
47779;DHT22;33538;48.432;11.350;2023-09-19T09:32:22;18.90;94.10
47779;DHT22;33538;48.432;11.350;2023-09-19T09:34:51;18.90;94.20
47779;DHT22;33538;48.432;11.350;2023-09-19T09:37:18;18.90;94.10
47779;DHT22;33538;48.432;11.350;2023-09-19T09:39:54;18.90;94.10
47779;DHT22;33538;48.432;11.350;2023-09-19T09:42:32;18.90;94.10
47779;DHT22;33538;48.432;11.350;2023-09-19T09:45:16;18.90;94.10
47779;DHT22;33538;48.432;11.350;2023-09-19T09:47:44;18.90;94.00
47779;DHT22;33538;48.432;11.350;2023-09-19T09:50:11;18.90;94.00
47779;DHT22;33538;48.432;11.350;2023-09-19T09:52:45;18.90;93.90
47779;DHT22;33538;48.432;11.350;2023-09-19T09:55:13;18.90;93.80
47779;DHT22;33538;48.432;11.350;2023-09-19T09:57:40;18.90;93.80
47779;DHT22;33538;48.432;11.350;2023-09-19T10:00:07;19.00;93.70
47779;DHT22;33538;48.432;11.350;2023-09-19T10:02:36;19.00;93.70
47779;DHT22;33538;48.432;11.350;2023-09-19T10:05:12;19.00;93.70
47779;DHT22;33538;48.432;11.350;2023-09-19T10:07:39;19.00;93.60
47779;DHT22;33538;48.432;11.350;2023-09-19T10:10:10;19.00;93.60
47779;DHT22;33538;48.432;11.350;2023-09-19T10:12:43;19.00;93.60
47779;DHT22;33538;48.432;11.350;2023-09-19T10:15:11;18.90;93.60
47779;DHT22;33538;48.432;11.350;2023-09-19T10:17:42;19.00;93.60
47779;DHT22;33538;48.432;11.350;2023-09-19T10:20:12;19.00;93.60
47779;DHT22;33538;48.432;11.350;2023-09-19T10:22:39;19.10;93.80
47779;DHT22;33538;48.432;11.350;2023-09-19T10:25:07;19.10;93.50
47779;DHT22;33538;48.432;11.350;2023-09-19T10:27:36;19.10;93.60
47779;DHT22;33538;48.432;11.350;2023-09-19T10:30:06;19.10;93.50
47779;DHT22;33538;48.432;11.350;2023-09-19T10:32:35;19.10;93.50
47779;DHT22;33538;48.432;11.350;2023-09-19T10:35:05;19.10;93.60
47779;DHT22;33538;48.432;11.350;2023-09-19T10:37:34;19.10;93.60
47779;DHT22;33538;48.432;11.350;2023-09-19T10:40:04;19.10;93.60
47779;DHT22;33538;48.432;11.350;2023-09-19T10:42:33;19.10;93.60
47779;DHT22;33538;48.432;11.350;2023-09-19T10:45:06;19.20;93.70
47779;DHT22;33538;48.432;11.350;2023-09-19T10:47:33;19.10;93.70
47779;DHT22;33538;48.432;11.350;2023-09-19T10:50:01;19.20;93.70
47779;DHT22;33538;48.432;11.350;2023-09-19T10:52:28;19.20;93.70
47779;DHT22;33538;48.432;11.350;2023-09-19T10:54:56;19.20;93.60
47779;DHT22;33538;48.432;11.350;2023-09-19T10:57:24;19.30;93.70
47779;DHT22;33538;48.432;11.350;2023-09-19T11:00:02;19.30;93.70
47779;DHT22;33538;48.432;11.350;2023-09-19T11:02:31;19.30;93.70
47779;DHT22;33538;48.432;11.350;2023-09-19T11:05:11;19.30;93.70
47779;DHT22;33538;48.432;11.350;2023-09-19T11:07:57;19.30;93.70
47779;DHT22;33538;48.432;11.350;2023-09-19T11:10:46;19.40;93.70
47779;DHT22;33538;48.432;11.350;2023-09-19T11:13:25;19.40;93.80
47779;DHT22;33538;48.432;11.350;2023-09-19T11:16:18;19.40;93.80
47779;DHT22;33538;48.432;11.350;2023-09-19T11:18:53;19.40;93.90
47779;DHT22;33538;48.432;11.350;2023-09-19T11:24:32;19.50;94.00
47779;DHT22;33538;48.432;11.350;2023-09-19T11:27:13;19.50;94.10
47779;DHT22;33538;48.432;11.350;2023-09-19T11:29:41;19.50;94.20
47779;DHT22;33538;48.432;11.350;2023-09-19T11:32:07;19.60;94.20
47779;DHT22;33538;48.432;11.350;2023-09-19T11:34:45;19.60;94.10
47779;DHT22;33538;48.432;11.350;2023-09-19T11:40:26;19.60;94.30
47779;DHT22;33538;48.432;11.350;2023-09-19T11:42:52;19.60;94.40
47779;DHT22;33538;48.432;11.350;2023-09-19T11:46:03;19.60;94.50
47779;DHT22;33538;48.432;11.350;2023-09-19T11:48:31;19.60;94.90
47779;DHT22;33538;48.432;11.350;2023-09-19T11:51:00;19.60;94.70
47779;DHT22;33538;48.432;11.350;2023-09-19T11:53:31;19.60;94.70
47779;DHT22;33538;48.432;11.350;2023-09-19T11:55:59;19.60;94.80
47779;DHT22;33538;48.432;11.350;2023-09-19T11:58:26;19.60;94.90
47779;DHT22;33538;48.432;11.350;2023-09-19T12:00:54;19.60;95.00
47779;DHT22;33538;48.432;11.350;2023-09-19T12:03:21;19.60;95.00
47779;DHT22;33538;48.432;11.350;2023-09-19T12:05:49;19.60;95.00
47779;DHT22;33538;48.432;11.350;2023-09-19T12:08:18;19.60;95.00
47779;DHT22;33538;48.432;11.350;2023-09-19T12:10:45;19.50;95.00
47779;DHT22;33538;48.432;11.350;2023-09-19T12:13:16;19.50;95.10
47779;DHT22;33538;48.432;11.350;2023-09-19T12:15:43;19.60;95.20
47779;DHT22;33538;48.432;11.350;2023-09-19T12:18:10;19.60;95.20
47779;DHT22;33538;48.432;11.350;2023-09-19T12:20:43;19.50;95.20
47779;DHT22;33538;48.432;11.350;2023-09-19T12:23:13;19.50;95.20
47779;DHT22;33538;48.432;11.350;2023-09-19T12:25:43;19.60;95.30
47779;DHT22;33538;48.432;11.350;2023-09-19T12:28:10;19.50;95.30
47779;DHT22;33538;48.432;11.350;2023-09-19T12:30:37;19.50;95.30
47779;DHT22;33538;48.432;11.350;2023-09-19T12:33:04;19.50;95.30
47779;DHT22;33538;48.432;11.350;2023-09-19T12:35:32;19.50;95.30
47779;DHT22;33538;48.432;11.350;2023-09-19T12:37:59;19.50;95.30
47779;DHT22;33538;48.432;11.350;2023-09-19T12:40:26;19.50;95.40
47779;DHT22;33538;48.432;11.350;2023-09-19T12:42:58;19.50;95.40
47779;DHT22;33538;48.432;11.350;2023-09-19T12:45:25;19.50;95.40
47779;DHT22;33538;48.432;11.350;2023-09-19T12:48:17;19.60;95.30
47779;DHT22;33538;48.432;11.350;2023-09-19T12:50:59;19.50;95.30
47779;DHT22;33538;48.432;11.350;2023-09-19T12:53:26;19.60;95.30
47779;DHT22;33538;48.432;11.350;2023-09-19T12:55:58;19.60;95.20
47779;DHT22;33538;48.432;11.350;2023-09-19T12:58:27;19.60;95.20
47779;DHT22;33538;48.432;11.350;2023-09-19T13:00:54;19.60;95.10
47779;DHT22;33538;48.432;11.350;2023-09-19T13:03:26;19.70;95.10
47779;DHT22;33538;48.432;11.350;2023-09-19T13:05:54;19.70;95.00
47779;DHT22;33538;48.432;11.350;2023-09-19T13:08:23;19.70;95.00
47779;DHT22;33538;48.432;11.350;2023-09-19T13:11:10;19.70;94.90
47779;DHT22;33538;48.432;11.350;2023-09-19T13:13:40;19.80;94.80
47779;DHT22;33538;48.432;11.350;2023-09-19T13:16:08;19.80;94.80
47779;DHT22;33538;48.432;11.350;2023-09-19T13:18:45;19.80;94.80
47779;DHT22;33538;48.432;11.350;2023-09-19T13:21:13;19.80;94.70
47779;DHT22;33538;48.432;11.350;2023-09-19T13:23:42;19.80;94.70
47779;DHT22;33538;48.432;11.350;2023-09-19T13:26:09;19.80;94.70
47779;DHT22;33538;48.432;11.350;2023-09-19T13:28:40;19.80;94.70
47779;DHT22;33538;48.432;11.350;2023-09-19T13:31:07;19.90;94.70
47779;DHT22;33538;48.432;11.350;2023-09-19T13:33:35;19.90;94.70
47779;DHT22;33538;48.432;11.350;2023-09-19T13:36:08;19.90;94.70
47779;DHT22;33538;48.432;11.350;2023-09-19T13:38:35;19.90;94.70
47779;DHT22;33538;48.432;11.350;2023-09-19T13:41:02;19.90;94.70
47779;DHT22;33538;48.432;11.350;2023-09-19T13:43:29;20.00;94.40
47779;DHT22;33538;48.432;11.350;2023-09-19T13:45:57;20.00;94.50
47779;DHT22;33538;48.432;11.350;2023-09-19T13:48:24;20.00;94.60
47779;DHT22;33538;48.432;11.350;2023-09-19T13:50:51;20.00;94.70
47779;DHT22;33538;48.432;11.350;2023-09-19T13:53:18;20.00;94.70
47779;DHT22;33538;48.432;11.350;2023-09-19T13:55:44;20.00;94.70
47779;DHT22;33538;48.432;11.350;2023-09-19T13:58:11;20.00;94.80
47779;DHT22;33538;48.432;11.350;2023-09-19T14:00:38;20.00;94.80
47779;DHT22;33538;48.432;11.350;2023-09-19T14:03:07;20.00;94.80
47779;DHT22;33538;48.432;11.350;2023-09-19T14:05:34;20.00;94.80
47779;DHT22;33538;48.432;11.350;2023-09-19T14:08:01;20.00;94.80
47779;DHT22;33538;48.432;11.350;2023-09-19T14:10:28;20.00;94.80
47779;DHT22;33538;48.432;11.350;2023-09-19T14:12:55;20.10;94.90
47779;DHT22;33538;48.432;11.350;2023-09-19T14:15:21;20.10;94.90
47779;DHT22;33538;48.432;11.350;2023-09-19T14:17:48;20.10;94.80
47779;DHT22;33538;48.432;11.350;2023-09-19T14:20:17;20.10;94.80
47779;DHT22;33538;48.432;11.350;2023-09-19T14:22:44;20.10;94.80
47779;DHT22;33538;48.432;11.350;2023-09-19T14:25:11;20.10;94.80
47779;DHT22;33538;48.432;11.350;2023-09-19T14:27:38;20.10;94.80
47779;DHT22;33538;48.432;11.350;2023-09-19T14:30:06;20.20;94.80
47779;DHT22;33538;48.432;11.350;2023-09-19T14:32:33;20.20;94.70
47779;DHT22;33538;48.432;11.350;2023-09-19T14:35:00;20.20;94.60
47779;DHT22;33538;48.432;11.350;2023-09-19T14:37:28;20.20;94.50
47779;DHT22;33538;48.432;11.350;2023-09-19T14:39:55;20.20;94.40
47779;DHT22;33538;48.432;11.350;2023-09-19T14:42:21;20.20;94.30
47779;DHT22;33538;48.432;11.350;2023-09-19T14:44:48;20.20;94.20
47779;DHT22;33538;48.432;11.350;2023-09-19T14:47:15;20.20;94.20
47779;DHT22;33538;48.432;11.350;2023-09-19T14:49:42;20.30;94.10
47779;DHT22;33538;48.432;11.350;2023-09-19T14:52:11;20.30;94.00
47779;DHT22;33538;48.432;11.350;2023-09-19T14:54:39;20.30;93.90
47779;DHT22;33538;48.432;11.350;2023-09-19T14:57:06;20.30;93.90
47779;DHT22;33538;48.432;11.350;2023-09-19T14:59:33;20.30;93.80
47779;DHT22;33538;48.432;11.350;2023-09-19T15:02:00;20.30;93.70
47779;DHT22;33538;48.432;11.350;2023-09-19T15:04:27;20.30;93.60
47779;DHT22;33538;48.432;11.350;2023-09-19T15:06:54;20.30;93.50
47779;DHT22;33538;48.432;11.350;2023-09-19T15:09:21;20.30;93.50
47779;DHT22;33538;48.432;11.350;2023-09-19T15:11:49;20.30;93.40
47779;DHT22;33538;48.432;11.350;2023-09-19T15:14:16;20.30;93.40
47779;DHT22;33538;48.432;11.350;2023-09-19T15:16:43;20.30;93.30
47779;DHT22;33538;48.432;11.350;2023-09-19T15:19:10;20.30;93.30
47779;DHT22;33538;48.432;11.350;2023-09-19T15:21:37;20.30;93.30
47779;DHT22;33538;48.432;11.350;2023-09-19T15:24:04;20.30;93.30
47779;DHT22;33538;48.432;11.350;2023-09-19T15:26:31;20.30;93.30
47779;DHT22;33538;48.432;11.350;2023-09-19T15:28:59;20.30;93.20
47779;DHT22;33538;48.432;11.350;2023-09-19T15:31:26;20.30;93.10